Aviation Digital Data Service (ADDS)

Output produced by METARs form (1816 UTC 19 April 2019)
found at http://www.aviationweather.gov/metar/data/
 
METAR text: MYGF 191800Z 16016KT 130V190 9999 FEW030 BKN250 31/21 A2992
Conditions at: MYGF (FREEPORT INTL A , BS) observed 1800 UTC 19 April 2019
Temperature: 31.0°C (88°F)
Dewpoint: 21.0°C (70°F) [RH = 55%]
Pressure (altimeter): 29.92 inches Hg (1013.3 mb)
Winds: from the SSE (160 degrees) at 18 MPH (16 knots; 8.2 m/s)
Visibility: 6 or more miles (10+ km)
Ceiling: 25000 feet AGL
Clouds: few clouds at 3000 feet AGL
broken clouds at 25000 feet AGL
Weather: no significant weather observed at this time

METAR text: MYGF 191700Z 17019KT 9999 FEW030 SCT250 30/22 A2995
Conditions at: MYGF (FREEPORT INTL A , BS) observed 1700 UTC 19 April 2019
Temperature: 30.0°C (86°F)
Dewpoint: 22.0°C (72°F) [RH = 62%]
Pressure (altimeter): 29.95 inches Hg (1014.3 mb)
Winds: from the S (170 degrees) at 22 MPH (19 knots; 9.8 m/s)
Visibility: 6 or more miles (10+ km)
Ceiling: at least 12,000 feet AGL
Clouds: few clouds at 3000 feet AGL
scattered clouds at 25000 feet AGL
Weather: no significant weather observed at this time

METAR text: MYGF 191600Z 18020KT 9999 FEW022 SCT080 29/22 A2997
Conditions at: MYGF (FREEPORT INTL A , BS) observed 1600 UTC 19 April 2019
Temperature: 29.0°C (84°F)
Dewpoint: 22.0°C (72°F) [RH = 66%]
Pressure (altimeter): 29.97 inches Hg (1015.0 mb)
Winds: from the S (180 degrees) at 23 MPH (20 knots; 10.3 m/s)
Visibility: 6 or more miles (10+ km)
Ceiling: at least 12,000 feet AGL
Clouds: few clouds at 2200 feet AGL
scattered clouds at 8000 feet AGL
Weather: no significant weather observed at this time

METAR text: MYGF 191500Z 17018KT 9999 VCSH FEW020 SCT060 28/23 A2997
Conditions at: MYGF (FREEPORT INTL A , BS) observed 1500 UTC 19 April 2019
Temperature: 28.0°C (82°F)
Dewpoint: 23.0°C (73°F) [RH = 74%]
Pressure (altimeter): 29.97 inches Hg (1015.0 mb)
Winds: from the S (170 degrees) at 21 MPH (18 knots; 9.3 m/s)
Visibility: 6 or more miles (10+ km)
Ceiling: at least 12,000 feet AGL
Clouds: few clouds at 2000 feet AGL
scattered clouds at 6000 feet AGL
Weather: VCSH  (showers in vicinity)

METAR text: MYGF 191400Z 17015KT 9999 VCSH BKN020 27/23 A2996 RMK RESH
Conditions at: MYGF (FREEPORT INTL A , BS) observed 1400 UTC 19 April 2019
Temperature: 27.0°C (81°F)
Dewpoint: 23.0°C (73°F) [RH = 79%]
Pressure (altimeter): 29.96 inches Hg (1014.6 mb)
Winds: from the S (170 degrees) at 17 MPH (15 knots; 7.7 m/s)
Visibility: 6 or more miles (10+ km)
Ceiling: 2000 feet AGL
Clouds: broken clouds at 2000 feet AGL
Weather: VCSH  (showers in vicinity)

METAR text: MYGF 191300Z 15017KT 9999 VCSH BKN020 26/22 A2996 RMK RESH
Conditions at: MYGF (FREEPORT INTL A , BS) observed 1300 UTC 19 April 2019
Temperature: 26.0°C (79°F)
Dewpoint: 22.0°C (72°F) [RH = 79%]
Pressure (altimeter): 29.96 inches Hg (1014.6 mb)
Winds: from the SSE (150 degrees) at 20 MPH (17 knots; 8.7 m/s)
Visibility: 6 or more miles (10+ km)
Ceiling: 2000 feet AGL
Clouds: broken clouds at 2000 feet AGL
Weather: VCSH  (showers in vicinity)

METAR text: MYGF 191200Z 15013KT 9999 BKN020 26/22 A2996
Conditions at: MYGF (FREEPORT INTL A , BS) observed 1200 UTC 19 April 2019
Temperature: 26.0°C (79°F)
Dewpoint: 22.0°C (72°F) [RH = 79%]
Pressure (altimeter): 29.96 inches Hg (1014.6 mb)
Winds: from the SSE (150 degrees) at 15 MPH (13 knots; 6.7 m/s)
Visibility: 6 or more miles (10+ km)
Ceiling: 2000 feet AGL
Clouds: broken clouds at 2000 feet AGL
Weather: no significant weather observed at this time

METAR text: MYGF 191100Z COR 16014KT 9999 BKN020 25/22 A2994
Conditions at: MYGF (FREEPORT INTL A , BS) observed 1100 UTC 19 April 2019
Temperature: 25.0°C (77°F)
Dewpoint: 22.0°C (72°F) [RH = 83%]
Pressure (altimeter): 29.94 inches Hg (1014.0 mb)
Winds: from the SSE (160 degrees) at 16 MPH (14 knots; 7.2 m/s)
Visibility: 6 or more miles (10+ km)
Ceiling: 2000 feet AGL
Clouds: broken clouds at 2000 feet AGL
Weather: no significant weather observed at this time

METAR text: MYGF 190000Z 13011KT 9999 FEW018 SCT100 26/23 A2997
Conditions at: MYGF (FREEPORT INTL A , BS) observed 0000 UTC 19 April 2019
Temperature: 26.0°C (79°F)
Dewpoint: 23.0°C (73°F) [RH = 84%]
Pressure (altimeter): 29.97 inches Hg (1015.0 mb)
Winds: from the SE (130 degrees) at 13 MPH (11 knots; 5.7 m/s)
Visibility: 6 or more miles (10+ km)
Ceiling: at least 12,000 feet AGL
Clouds: few clouds at 1800 feet AGL
scattered clouds at 10000 feet AGL
Weather: no significant weather observed at this time

METAR text: MYGF 182300Z 12013KT 9999 FEW018 BKN100 27/23 A2997
Conditions at: MYGF (FREEPORT INTL A , BS) observed 2300 UTC 18 April 2019
Temperature: 27.0°C (81°F)
Dewpoint: 23.0°C (73°F) [RH = 79%]
Pressure (altimeter): 29.97 inches Hg (1015.0 mb)
Winds: from the ESE (120 degrees) at 15 MPH (13 knots; 6.7 m/s)
Visibility: 6 or more miles (10+ km)
Ceiling: 10000 feet AGL
Clouds: few clouds at 1800 feet AGL
broken clouds at 10000 feet AGL
Weather: no significant weather observed at this time

METAR text: MYGF 182200Z 12014KT 9999 FEW020 SCT090 28/22 A2998
Conditions at: MYGF (FREEPORT INTL A , BS) observed 2200 UTC 18 April 2019
Temperature: 28.0°C (82°F)
Dewpoint: 22.0°C (72°F) [RH = 70%]
Pressure (altimeter): 29.98 inches Hg (1015.3 mb)
Winds: from the ESE (120 degrees) at 16 MPH (14 knots; 7.2 m/s)
Visibility: 6 or more miles (10+ km)
Ceiling: at least 12,000 feet AGL
Clouds: few clouds at 2000 feet AGL
scattered clouds at 9000 feet AGL
Weather: no significant weather observed at this time

METAR text: MYGF 182100Z 12015KT 9999 BKN020 28/23 A2998
Conditions at: MYGF (FREEPORT INTL A , BS) observed 2100 UTC 18 April 2019
Temperature: 28.0°C (82°F)
Dewpoint: 23.0°C (73°F) [RH = 74%]
Pressure (altimeter): 29.98 inches Hg (1015.3 mb)
Winds: from the ESE (120 degrees) at 17 MPH (15 knots; 7.7 m/s)
Visibility: 6 or more miles (10+ km)
Ceiling: 2000 feet AGL
Clouds: broken clouds at 2000 feet AGL
Weather: no significant weather observed at this time

METAR text: MYGF 182000Z 13014KT 9999 BKN020 29/23 A2999
Conditions at: MYGF (FREEPORT INTL A , BS) observed 2000 UTC 18 April 2019
Temperature: 29.0°C (84°F)
Dewpoint: 23.0°C (73°F) [RH = 70%]
Pressure (altimeter): 29.99 inches Hg (1015.7 mb)
Winds: from the SE (130 degrees) at 16 MPH (14 knots; 7.2 m/s)
Visibility: 6 or more miles (10+ km)
Ceiling: 2000 feet AGL
Clouds: broken clouds at 2000 feet AGL
Weather: no significant weather observed at this time

METAR text: MYGF 181900Z 12016KT 9999 BKN020 29/22 A3001
Conditions at: MYGF (FREEPORT INTL A , BS) observed 1900 UTC 18 April 2019
Temperature: 29.0°C (84°F)
Dewpoint: 22.0°C (72°F) [RH = 66%]
Pressure (altimeter): 30.01 inches Hg (1016.3 mb)
Winds: from the ESE (120 degrees) at 18 MPH (16 knots; 8.2 m/s)
Visibility: 6 or more miles (10+ km)
Ceiling: 2000 feet AGL
Clouds: broken clouds at 2000 feet AGL
Weather: no significant weather observed at this time

METAR text: MYGF 181800Z 13017KT 100V160 9999 BKN020 30/23 A3002
Conditions at: MYGF (FREEPORT INTL A , BS) observed 1800 UTC 18 April 2019
Temperature: 30.0°C (86°F)
Dewpoint: 23.0°C (73°F) [RH = 66%]
Pressure (altimeter): 30.02 inches Hg (1016.7 mb)
Winds: from the SE (130 degrees) at 20 MPH (17 knots; 8.7 m/s)
Visibility: 6 or more miles (10+ km)
Ceiling: 2000 feet AGL
Clouds: broken clouds at 2000 feet AGL
Weather: no significant weather observed at this time

METAR text: MYGF 181700Z 13015KT 9999 BKN020 29/23 A3003
Conditions at: MYGF (FREEPORT INTL A , BS) observed 1700 UTC 18 April 2019
Temperature: 29.0°C (84°F)
Dewpoint: 23.0°C (73°F) [RH = 70%]
Pressure (altimeter): 30.03 inches Hg (1017.0 mb)
Winds: from the SE (130 degrees) at 17 MPH (15 knots; 7.7 m/s)
Visibility: 6 or more miles (10+ km)
Ceiling: 2000 feet AGL
Clouds: broken clouds at 2000 feet AGL
Weather: no significant weather observed at this time

METAR text: MYGF 181600Z 12016KT 9999 SCT020 29/22 A3004
Conditions at: MYGF (FREEPORT INTL A , BS) observed 1600 UTC 18 April 2019
Temperature: 29.0°C (84°F)
Dewpoint: 22.0°C (72°F) [RH = 66%]
Pressure (altimeter): 30.04 inches Hg (1017.4 mb)
Winds: from the ESE (120 degrees) at 18 MPH (16 knots; 8.2 m/s)
Visibility: 6 or more miles (10+ km)
Ceiling: at least 12,000 feet AGL
Clouds: scattered clouds at 2000 feet AGL
Weather: no significant weather observed at this time

METAR text: MYGF 181500Z 12015KT 9999 SCT020 28/22 A3005
Conditions at: MYGF (FREEPORT INTL A , BS) observed 1500 UTC 18 April 2019
Temperature: 28.0°C (82°F)
Dewpoint: 22.0°C (72°F) [RH = 70%]
Pressure (altimeter): 30.05 inches Hg (1017.7 mb)
Winds: from the ESE (120 degrees) at 17 MPH (15 knots; 7.7 m/s)
Visibility: 6 or more miles (10+ km)
Ceiling: at least 12,000 feet AGL
Clouds: scattered clouds at 2000 feet AGL
Weather: no significant weather observed at this time

METAR text: MYGF 181400Z 11014KT 9999 SCT020 27/21 A3003
Conditions at: MYGF (FREEPORT INTL A , BS) observed 1400 UTC 18 April 2019
Temperature: 27.0°C (81°F)
Dewpoint: 21.0°C (70°F) [RH = 70%]
Pressure (altimeter): 30.03 inches Hg (1017.0 mb)
Winds: from the ESE (110 degrees) at 16 MPH (14 knots; 7.2 m/s)
Visibility: 6 or more miles (10+ km)
Ceiling: at least 12,000 feet AGL
Clouds: scattered clouds at 2000 feet AGL
Weather: no significant weather observed at this time

METAR text: MYGF 181300Z 11013KT 9999 BKN020 26/22 A3003
Conditions at: MYGF (FREEPORT INTL A , BS) observed 1300 UTC 18 April 2019
Temperature: 26.0°C (79°F)
Dewpoint: 22.0°C (72°F) [RH = 79%]
Pressure (altimeter): 30.03 inches Hg (1017.0 mb)
Winds: from the ESE (110 degrees) at 15 MPH (13 knots; 6.7 m/s)
Visibility: 6 or more miles (10+ km)
Ceiling: 2000 feet AGL
Clouds: broken clouds at 2000 feet AGL
Weather: no significant weather observed at this time

METAR text: MYGF 181200Z 10004KT 9999 SCT020 23/22 A3003
Conditions at: MYGF (FREEPORT INTL A , BS) observed 1200 UTC 18 April 2019
Temperature: 23.0°C (73°F)
Dewpoint: 22.0°C (72°F) [RH = 94%]
Pressure (altimeter): 30.03 inches Hg (1017.0 mb)
Winds: from the E (100 degrees) at 5 MPH (4 knots; 2.1 m/s)
Visibility: 6 or more miles (10+ km)
Ceiling: at least 12,000 feet AGL
Clouds: scattered clouds at 2000 feet AGL
Weather: no significant weather observed at this time

METAR text: MYGF 181100Z 08006KT 9999 FEW015 SCT065 21/20 A3002
Conditions at: MYGF (FREEPORT INTL A , BS) observed 1100 UTC 18 April 2019
Temperature: 21.0°C (70°F)
Dewpoint: 20.0°C (68°F) [RH = 94%]
Pressure (altimeter): 30.02 inches Hg (1016.7 mb)
Winds: from the E (80 degrees) at 7 MPH (6 knots; 3.1 m/s)
Visibility: 6 or more miles (10+ km)
Ceiling: at least 12,000 feet AGL
Clouds: few clouds at 1500 feet AGL
scattered clouds at 6500 feet AGL
Weather: no significant weather observed at this time

Forecast for: MYGF (FREEPORT INTL A , BS)
Text: MYGF 191600Z 1918/2018 15015G25KT 9999 SHRA FEW015CB BKN018 BKN030
Forecast period: 1800 UTC 19 April 2019 to 1200 UTC 20 April 2019
Forecast type: FROM: standard forecast or significant change
Winds: from the SSE (150 degrees) at 17 MPH (15 knots; 7.7 m/s)
gusting to 29 MPH (25 knots; 12.9 m/s)
Visibility: 6 or more miles 10+ km)
Ceiling: 1800 feet AGL
Clouds: few clouds at 1500 feet AGL
broken clouds at 1800 feet AGL
broken clouds at 3000 feet AGL
Weather: SHRA  (rain showers)
Text: PROB40
Forecast period: 0000 to 0600 UTC 20 April 2019
Forecast type: TEMPORARY: The following changes expected for less than half the time period
Winds: from the SSW (200 degrees) at 17 MPH (15 knots; 7.7 m/s)
gusting to 29 MPH (25 knots; 12.9 m/s)
Visibility: 0.99 miles (1.59 km)
Ceiling: 1500 feet AGL
Clouds: few clouds at 1200 feet AGL
overcast cloud deck at 1500 feet AGL
Weather: TSRA  (rain associated with thunderstorm(s))
Text: TEMPO 2000/2006 20015G25KT 1600 TSRA FEW012 OVC015CB
Forecast period: 1200 to 1800 UTC 20 April 2019
Forecast type: FROM: standard forecast or significant change
Winds: from the WNW (300 degrees) at 12 MPH (10 knots; 5.1 m/s)
Visibility: 6 or more miles 10+ km)
Ceiling: at least 12,000 feet AGL
Clouds: scattered clouds at 3000 feet AGL
Weather: no significant weather forecast for this period